Aérodrome :
LOGIN :

S'inscrire | Disclaimer

   EN    FR    IT 

 










Légende :    VFR   VFR Marginal   IFR   IFR Intensif   IFR Très Intensif
Visi : 
Plafond : 
>= 8 km
>= 3000ft
5 à 8 km
1000 à 3000 ft
1500m à 5 km
500 à 1000 ft
800 à 1500m
200 à 500 ft
< 800m
< 200 ft
Symboles :   Orages  Brouillard  Fortes neiges  Fortes précipitations  Vent > 20 kt
SIGMETs :   Divers  Orages  Givrage  Turbulence  Onde Orograph.  Cendres Volcan.







- Altitude de l'aérodrome : 1906 ft
- Code IATA : INN


LOWI - Innsbruck

DERNIER METAR :
  • 231620Z 05006KT 360V130 9999 -SHRA FEW030 BKN050 21/16 Q1016 NOSIG

METARs EXPIRÉS :
  • 231550Z 05004KT 010V120 9999 FEW030 SCT050 21/17 Q1016 TEMPO FM1615 TL1630 SHRA
  • 231520Z 08010KT 050V110 9999 FEW030 BKN050 FEW050CB 21/16 Q1016 NOSIG
  • 231450Z 20004KT 150V240 9999 VCTS FEW010 BKN050 FEW050CB 22/17 Q1016 RETS TEMPO TS
  • 231420Z 01007KT 330V030 9999 SHRA VCTS FEW040 BKN050 FEW050CB 22/17 Q1016 TEMPO 10010G20KT TSRA
  • 231350Z 06005KT 340V130 9999 -SHRA BKN045 FEW060CB 24/14 Q1016 TEMPO 27010G20KT TSRA

TAF TAF LOWI
Valide du 23 à 12h jusqu'au 24 à 12h UTC


231115Z 2312/2412 08005KT 9999 FEW040 BKN080 TX24/2314Z TN16/2403Z
PROB30
TEMPO 2313/2320 27015G30KT TSRA SCT070 FEW070CB
BECMG 2318/2320 27006KT -SHRA FEW010 SCT040 BKN060
PROB30
TEMPO 2409/2412 27012G25KT TSRA SCT050 FEW050CB
Pas de NOTAMs connus pour ce terrain.
1 SIGMET publié pour la FIR Wien (LOVV) :
 
Orages fréquents
LOVV SIGMET 6 VALID 231530/231730 LOWW
LOVV WIEN FIR FRQ TS OBS WI N4755 E01235 - N4710 E01345 - N4625 E01340 - N4635 E01225 - N4750 E01145 - N4755 E01235 TOP FL380 MOV E NC=



MET'MAP, la Météo Aéronautique d'un coup d'oeil ! - Copyright ORBIFLY Décembre 2007 - Disclaimer

ORBIFLY MET'MAP TEAM :

Programmation & Développement : Alexandra Zaïnal
Conception & Développement : Baudouin d'Aumeries
Co-Programmation & Développement : Marc-Olivier Méhu
Soutien technique & logistique : Manuel Goepfert

Contact : metmap@orbifly.com




SOURCES & CREDITS :

   NOAA